Latest Coastal Weather Observations for Wynyard

IDT60701

Issued at 4:52 pm EST Tuesday 25 July 2017 (issued every 10 minutes, with the page automatically refreshed every 10 minutes)

About coastal observations | Map of coastal stations | Coastal observations for TAS | Marine services | Other Formats
Station Details ID: 091107 Name: WYNYARD AIRPORT Lat: -41.00 Lon: 145.73 Height: 12.0 m
Data from the previous 72 hours. | See also: Recent months at Wynyard
Date/Time
EST
Temp
°C
Wind Pressure Rain since
9am
mm
Weather Cloud Vis
km
Sea
Height
m
Swell
Dir  Spd
kts
Gust
kts
hPa Trend Height
m
Period
s
Dir
25/04:30pm 12.6 WNW 8 11 1006.4 - 1.0 - Partly cloudy 10 - - - -
25/04:00pm 12.7 WNW 6 8 1006.5 - 1.0 - Partly cloudy 10 - - - -
25/03:30pm 12.8 WNW 7 11 1006.5 - 1.0 - - 10 - - - -
25/03:00pm 12.6 NW 11 15 1006.7 - 1.0 Recent precip. Cloudy 10 - - - -
25/02:49pm 12.7 WNW 10 14 1006.7 - 1.0 - Partly cloudy 10 - - - -
25/02:32pm 12.7 WNW 12 20 1006.8 - 1.0 - Partly cloudy 5 - - - -
25/02:30pm 12.9 WNW 11 17 1006.8 - 0.4 - Partly cloudy 7 - - - -
25/02:00pm 14.1 WNW 11 19 1006.9 - 0.0 - Partly cloudy 10 - - - -
25/01:30pm 14.3 WNW 13 19 1007.1 - 0.0 - Partly cloudy 10 - - - -
25/01:00pm 15.2 NW 13 18 1007.6 - 0.0 - Partly cloudy 10 - - - -
25/12:30pm 13.7 NNW 12 17 1008.1 - 0.0 - Partly cloudy 10 - - - -
25/12:00pm 14.3 NW 9 13 1008.7 - 0.0 - Cloudy 10 - - - -
25/11:33am 13.3 NW 9 14 1009.2 - 0.0 - Partly cloudy 10 - - - -
25/11:30am 13.5 NW 9 14 1009.3 - 0.0 - Partly cloudy 10 - - - -
25/11:00am 13.1 WNW 9 15 1009.8 - 0.0 - Partly cloudy 10 - - - -
25/10:30am 12.4 WNW 9 13 1010.0 - 0.0 - Partly cloudy 10 - - - -
25/10:00am 12.1 WNW 9 14 1010.3 - 0.0 - Partly cloudy 10 - - - -
25/09:50am 12.0 WNW 9 12 1010.3 - 0.0 - Partly cloudy 10 - - - -
25/09:30am 11.7 W 7 11 1010.3 - 0.0 - Partly cloudy 10 - - - -
25/09:00am 11.0 WNW 8 11 1010.5 - 1.0 - Cloudy 10 - - - -
25/08:30am 11.1 WNW 12 16 1010.1 - 1.0 - Partly cloudy 10 - - - -
25/08:16am 11.5 NW 15 25 1009.8 - 1.0 - Partly cloudy 10 - - - -
25/08:14am 11.5 NW 16 25 1009.7 - 1.0 - Partly cloudy 10 - - - -
25/08:00am 11.8 NW 17 24 1009.8 - 1.0 - Partly cloudy 10 - - - -
25/07:56am 11.9 NW 17 27 1009.7 - 1.0 - Partly cloudy 10 - - - -
25/07:50am 12.0 NW 15 27 1009.7 - 1.0 - Partly cloudy 10 - - - -
25/07:49am 11.9 NW 14 21 1009.7 - 1.0 - Partly cloudy 10 - - - -
25/07:38am 11.9 NW 15 21 1009.8 - 1.0 - Partly cloudy 10 - - - -
25/07:30am 11.9 NW 14 19 1009.9 - 1.0 - Partly cloudy 10 - - - -
25/07:10am 11.8 NW 15 23 1009.8 - 1.0 - Partly cloudy 10 - - - -
25/07:00am 11.6 NW 13 18 1009.9 - 1.0 - Partly cloudy 10 - - - -
25/06:30am 11.5 NW 14 19 1010.0 - 1.0 - Partly cloudy 7 - - - -
25/06:20am 11.5 NW 15 21 1010.0 - 1.0 - Partly cloudy 9 - - - -
25/06:00am 9.4 SSW 6 9 1010.1 - 1.0 Recent precip. Cloudy 10 - - - -
25/05:56am 8.7 S 4 7 1010.1 - 1.0 - Partly cloudy 10 - - - -
25/05:40am 6.3 S 4 5 1010.3 - 0.6 - Partly cloudy 5 - - - -
25/05:30am 6.2 S 4 6 1010.5 - 0.4 - Partly cloudy 9 - - - -
25/05:00am 5.7 S 3 4 1010.8 - 0.0 - Cloudy 10 - - - -
25/04:30am 5.5 S 2 5 1011.3 - 0.0 - Partly cloudy 10 - - - -
25/04:29am 5.4 S 3 5 1011.4 - 0.0 - Partly cloudy 10 - - - -
25/04:24am 5.4 S 2 5 1011.6 - 0.0 - Partly cloudy 10 - - - -
25/04:11am 5.1 S 2 5 1011.7 - 0.0 - Partly cloudy 10 - - - -
25/04:00am 5.0 S 2 6 1011.8 - 0.0 - Partly cloudy 10 - - - -
25/03:30am 4.8 S 2 3 1012.3 - 0.0 - Partly cloudy 9 - - - -
25/03:00am 4.5 S 3 4 1013.0 - 0.0 - Cloudy 10 - - - -
25/02:30am 4.1 S 4 4 1013.5 - 0.0 - Partly cloudy 9 - - - -
25/02:01am 3.9 S 4 5 1013.7 - 0.0 - Partly cloudy 9 - - - -
25/02:00am 3.9 S 3 5 1013.7 - 0.0 - Cloudy 9 - - - -
25/01:38am 3.8 S 5 6 1014.0 - 0.0 - Partly cloudy 5 - - - -
25/01:30am 3.3 S 4 6 1014.0 - 0.0 - Partly cloudy 8 - - - -
25/01:00am 4.5 S 4 5 1014.3 - 0.0 - Cloudy 10 - - - -
25/12:30am 4.8 S 2 3 1014.5 - 0.0 - Cloudy 10 - - - -
25/12:00am 4.4 SSW 4 6 1014.6 - 0.0 - Mostly cloudy 10 - - - -
 
Date/Time
EST
Temp
°C
Wind Pressure Rain since
9am
mm
Weather Cloud Vis
km
Sea
Height
m
Swell
Dir  Spd
kts
Gust
kts
hPa Trend Height
m
Period
s
Dir
24/11:30pm 4.7 NW 3 4 1014.8 - 0.0 - Partly cloudy 7 - - - -
24/11:00pm 4.4 WSW 3 4 1015.2 - 0.0 - Partly cloudy 10 - - - -
24/10:30pm 4.0 WNW 5 6 1015.3 - 0.0 - Partly cloudy 10 - - - -
24/10:00pm 5.3 WNW 5 6 1015.2 - 0.0 - Partly cloudy 10 - - - -
24/09:30pm 3.4 SW 4 5 1015.2 - 0.0 - Partly cloudy 10 - - - -
24/09:00pm 3.2 W 7 7 1015.2 - 0.0 - Mostly clear 10 - - - -
24/08:30pm 3.5 W 7 8 1015.2 - 0.0 - - 10 - - - -
24/08:00pm 5.2 W 7 8 1015.3 - 0.0 - Partly cloudy 10 - - - -
24/07:30pm 6.8 WNW 7 9 1015.1 - 0.0 - Cloudy 10 - - - -
24/07:00pm 6.0 W 6 7 1014.9 - 0.0 - Partly cloudy 10 - - - -
24/06:30pm 7.6 W 8 9 1014.7 - 0.0 - Cloudy 10 - - - -
24/06:00pm 8.0 WNW 9 12 1014.8 - 0.0 - Cloudy 10 - - - -
24/05:30pm 8.6 W 8 11 1014.7 - 0.0 - Cloudy 10 - - - -
24/05:00pm 9.1 W 9 10 1014.6 - 0.0 - Cloudy 10 - - - -
24/04:30pm 9.2 WSW 8 11 1014.4 - 0.0 - Partly cloudy 10 - - - -
24/04:00pm 9.4 W 10 13 1014.4 - 0.0 - Partly cloudy 10 - - - -
24/03:30pm 9.6 WSW 11 15 1014.5 - 0.0 - Partly cloudy 10 - - - -
24/03:00pm 10.2 WSW 12 17 1014.4 - 0.0 - Partly cloudy 10 - - - -
24/02:30pm 11.1 W 16 21 1014.4 - 0.0 - Partly cloudy 10 - - - -
24/02:00pm 10.9 W 13 17 1014.4 - 0.0 - - 10 - - - -
24/01:30pm 11.5 W 11 18 1014.7 - 0.0 - Partly cloudy 10 - - - -
24/01:00pm 10.5 W 13 18 1014.9 - 0.0 - Partly cloudy 10 - - - -
24/12:30pm 9.9 WSW 14 18 1015.2 - 0.0 - Partly cloudy 10 - - - -
24/12:00pm 10.0 W 14 20 1015.7 - 0.0 - Partly cloudy 10 - - - -
24/11:30am 9.9 W 15 19 1016.0 - 0.0 - Partly cloudy 10 - - - -
24/11:00am 9.9 W 11 17 1016.4 - 0.0 - - 10 - - - -
24/10:30am 8.8 WSW 8 11 1016.3 - 0.0 - - 10 - - - -
24/10:00am 7.8 WSW 8 12 1016.3 - 0.0 - - 10 - - - -
24/09:30am 6.7 W 6 8 1016.3 - 0.0 - - 10 - - - -
24/09:00am 4.9 WNW 7 9 1016.2 - 2.2 Rain - 10 - - - -
24/08:30am 2.2 W 6 7 1015.8 - 2.0 - - 10 - - - -
24/08:00am 0.2 W 7 8 1015.8 - 1.8 - - 10 - - - -
24/07:30am -1.1 WSW 6 7 1015.4 - 1.8 - - 10 - - - -
24/07:00am -0.2 W 7 9 1015.0 - 1.8 - - 10 - - - -
24/06:30am 0.5 W 9 10 1014.7 - 1.8 - Partly cloudy 10 - - - -
24/06:00am 1.3 WNW 10 11 1014.3 - 1.8 - - 10 - - - -
24/05:30am 2.0 WNW 11 11 1013.8 - 1.8 - - 10 - - - -
24/05:00am 0.8 WNW 10 11 1013.6 - 1.8 - - 10 - - - -
24/04:30am 0.7 W 7 8 1013.3 - 1.8 - - 10 - - - -
24/04:00am 1.1 WNW 9 10 1013.4 - 1.8 - - 10 - - - -
24/03:30am 2.2 NW 8 9 1013.3 - 1.8 - - 10 - - - -
24/03:00am 0.8 W 7 9 1013.1 - 1.8 - - 10 - - - -
24/02:30am 1.8 W 8 10 1013.2 - 1.8 - - 10 - - - -
24/02:00am 1.6 W 8 9 1013.1 - 1.8 - - 10 - - - -
24/01:30am 1.5 W 8 9 1013.1 - 1.8 - - 10 - - - -
24/01:00am 1.6 W 8 9 1013.2 - 1.8 - - 10 - - - -
24/12:30am 1.6 WSW 8 9 1013.1 - 1.8 - - 10 - - - -
24/12:00am 2.9 W 7 7 1013.1 - 1.8 - - 10 - - - -
 
Date/Time
EST
Temp
°C
Wind Pressure Rain since
9am
mm
Weather Cloud Vis
km
Sea
Height
m
Swell
Dir  Spd
kts
Gust
kts
hPa Trend Height
m
Period
s
Dir
23/11:30pm 4.2 WSW 4 6 1012.8 - 1.8 - - 10 - - - -
23/11:00pm 4.2 W 6 8 1012.6 - 1.8 - - 10 - - - -
23/10:30pm 4.9 WNW 6 9 1012.4 - 1.8 - - 10 - - - -
23/10:00pm 4.4 WNW 7 8 1011.6 - 1.8 - - 10 - - - -
23/09:30pm 5.4 W 6 8 1011.2 - 1.8 - - 10 - - - -
23/09:00pm 6.9 W 9 13 1010.7 - 1.8 - Mostly cloudy 10 - - - -
23/08:30pm 6.3 WNW 8 10 1010.2 - 1.8 - Partly cloudy 10 - - - -
23/08:00pm 7.0 WNW 7 9 1009.6 - 1.8 - Partly cloudy 10 - - - -
23/07:30pm 6.9 WNW 8 9 1009.2 - 1.8 - Partly cloudy 10 - - - -
23/07:00pm 7.2 WNW 7 8 1008.5 - 1.8 - Partly cloudy 10 - - - -
23/06:30pm 7.9 W 8 11 1007.9 - 1.8 - Partly cloudy 10 - - - -
23/06:00pm 8.9 WSW 9 17 1007.1 - 1.8 - - 10 - - - -
23/05:30pm 9.2 WSW 9 13 1006.3 - 1.8 - - 10 - - - -
23/05:00pm 10.1 WSW 12 18 1005.5 - 1.8 - Partly cloudy 10 - - - -
23/04:30pm 11.0 W 12 16 1005.0 - 1.8 - Partly cloudy 10 - - - -
23/04:00pm 11.6 W 15 19 1004.2 - 1.8 - Partly cloudy 10 - - - -
23/03:30pm 12.0 WSW 18 27 1003.8 - 1.8 - - 10 - - - -
23/03:25pm 12.0 WSW 17 27 1003.7 - 1.8 - - 10 - - - -
23/03:00pm 12.1 WSW 16 23 1003.2 - 1.8 - Mostly clear 10 - - - -
23/02:30pm 12.7 W 16 21 1002.5 - 1.8 - - 10 - - - -
23/02:00pm 12.1 W 18 25 1002.1 - 1.8 - Partly cloudy 7 - - - -
23/01:30pm 11.7 WSW 19 25 1002.0 - 1.8 - Partly cloudy 10 - - - -
23/01:00pm 13.1 W 16 24 1002.2 - 1.8 - Partly cloudy 10 - - - -
23/12:47pm 12.5 W 13 18 1002.3 - 1.8 - Partly cloudy 10 - - - -
23/12:30pm 10.9 W 15 19 1002.7 - 1.8 - Partly cloudy 2 - - - -
23/12:22pm 11.1 W 18 25 1002.7 - 1.4 - Partly cloudy 5 - - - -
23/12:00pm 11.8 W 16 23 1002.8 - 1.0 Recent precip. Cloudy 8 - - - -
23/11:49am 12.4 WNW 15 25 1002.8 - 1.0 - Partly cloudy 10 - - - -
23/11:30am 11.9 W 14 21 1003.0 - 1.0 - Partly cloudy 10 - - - -
23/11:25am 11.9 W 14 21 1003.1 - 1.0 - Partly cloudy 10 - - - -
23/11:06am 11.4 WNW 11 16 1003.4 - 0.8 - Partly cloudy 5 - - - -
23/11:00am 12.1 WNW 11 16 1003.4 - 0.2 - Partly cloudy 9 - - - -
23/10:30am 10.9 W 14 21 1003.6 - 0.2 - Partly cloudy 10 - - - -
23/10:00am 12.2 WNW 15 20 1003.5 - 0.0 - Partly cloudy 10 - - - -
23/09:30am 11.9 WNW 11 16 1003.4 - 0.0 - - 10 - - - -
23/09:00am 11.0 W 9 13 1003.6 - 10.2 - Mostly cloudy 10 - - - -
23/08:30am 10.1 WNW 7 10 1003.4 - 10.2 - - 10 - - - -
23/08:00am 9.5 W 9 13 1003.3 - 10.2 - Partly cloudy 10 - - - -
23/07:30am 9.2 W 10 15 1003.2 - 10.2 - - 10 - - - -
23/07:00am 9.5 W 12 18 1003.0 - 10.2 - Partly cloudy 10 - - - -
23/06:52am 9.4 WNW 13 21 1003.0 - 10.2 - Partly cloudy 10 - - - -
23/06:38am 9.8 W 14 19 1003.0 - 10.2 - Partly cloudy 5 - - - -
23/06:30am 10.0 WNW 14 20 1002.9 - 10.0 - Partly cloudy 10 - - - -
23/06:00am 9.8 WNW 11 14 1002.5 - 9.6 - Mostly cloudy 10 - - - -
23/05:30am 10.2 WNW 13 18 1002.9 - 9.6 - Partly cloudy 10 - - - -
23/05:00am 9.7 WNW 13 17 1002.4 - 9.6 - Partly cloudy 10 - - - -
23/04:49am 9.3 WNW 13 19 1002.5 - 9.6 - Partly cloudy 10 - - - -
23/04:30am 9.1 WNW 19 30 1002.8 - 9.2 - Partly cloudy 2 - - - -
23/04:12am 10.5 NW 15 25 1002.9 - 4.6 - Partly cloudy 4 - - - -
23/04:05am 11.1 WNW 10 13 1003.0 - 4.0 - Partly cloudy 5 - - - -
23/04:00am 11.3 WNW 9 13 1002.9 - 3.8 - Partly cloudy 9 - - - -
23/03:30am 11.4 WNW 15 21 1003.3 - 3.8 - Partly cloudy 10 - - - -
23/03:13am 11.2 WNW 16 26 1003.4 - 3.8 - Partly cloudy 10 - - - -
23/03:00am 11.5 NW 16 22 1003.5 - 3.8 - Cloudy 10 - - - -
23/02:30am 11.6 NW 19 27 1003.9 - 3.8 - Partly cloudy 10 - - - -
23/02:00am 11.9 NW 18 25 1004.2 - 3.8 - Partly cloudy 10 - - - -
23/01:44am 11.8 NW 18 29 1004.5 - 3.8 - Partly cloudy 10 - - - -
23/01:30am 11.5 NW 15 23 1004.6 - 3.8 - Partly cloudy 8 - - - -
23/01:18am 11.2 WNW 13 20 1004.8 - 3.8 - Partly cloudy 7 - - - -
23/01:00am 11.2 WNW 13 25 1005.3 - 3.2 - Partly cloudy 4 - - - -
23/12:56am 11.2 WNW 15 25 1005.5 - 2.8 - Partly cloudy 4 - - - -
23/12:38am 11.9 NW 18 25 1005.3 - 0.6 - Partly cloudy 5 - - - -
23/12:31am 12.1 NW 17 27 1005.3 - 0.4 - Partly cloudy 9 - - - -
23/12:30am 12.1 NW 18 27 1005.3 - 0.4 - Partly cloudy 9 - - - -
23/12:00am 12.6 NW 16 26 1005.4 - 0.4 - Cloudy 10 - - - -
 
Date/Time
EST
Temp
°C
Wind Pressure Rain since
9am
mm
Weather Cloud Vis
km
Sea
Height
m
Swell
Dir  Spd
kts
Gust
kts
hPa Trend Height
m
Period
s
Dir
22/11:53pm 12.5 NW 16 26 1005.5 - 0.4 - Partly cloudy 10 - - - -
22/11:30pm 12.6 NW 17 26 1005.9 - 0.4 - Partly cloudy 10 - - - -
22/11:26pm 12.5 NW 16 26 1006.0 - 0.4 - Partly cloudy 10 - - - -
22/11:00pm 12.7 NW 16 23 1006.3 - 0.4 - Cloudy 10 - - - -
22/10:49pm 12.6 NW 16 26 1006.4 - 0.4 - Partly cloudy 10 - - - -
22/10:30pm 12.6 NW 14 21 1006.7 - 0.4 - Partly cloudy 10 - - - -
22/10:00pm 12.7 NW 13 18 1007.0 - 0.4 - Partly cloudy 10 - - - -
22/09:30pm 12.7 NW 14 19 1007.4 - 0.4 - Cloudy 10 - - - -
22/09:00pm 12.2 WNW 12 19 1007.7 - 0.4 - Cloudy 10 - - - -
22/08:30pm 12.3 NW 10 15 1008.1 - 0.4 - Cloudy 10 - - - -
22/08:00pm 12.3 NW 11 17 1008.3 - 0.4 - Cloudy 10 - - - -
22/07:30pm 12.3 NW 10 13 1008.6 - 0.4 - Cloudy 10 - - - -
22/07:00pm 12.3 NW 12 16 1008.7 - 0.4 - Cloudy 10 - - - -
22/06:30pm 12.1 NW 10 14 1008.8 - 0.4 - Cloudy 10 - - - -
22/06:00pm 12.1 NW 11 14 1008.9 - 0.4 - Cloudy 10 - - - -
22/05:30pm 12.1 NW 12 16 1008.8 - 0.4 - Cloudy 10 - - - -
22/05:00pm 12.3 NW 11 17 1008.8 - 0.4 - Cloudy 10 - - - -

Other Formats:

Comma delimited format used in spreadsheet applications
http://www.bom.gov.au/fwo/IDT60701/IDT60701.95957.axf

JavaScript Object Notation format (JSON) in row-major order
http://www.bom.gov.au/fwo/IDT60701/IDT60701.95957.json